Lima/jorge Chave

SPJC · Callao, Peru

METAR history SPJC · Lima/jorge Chave

Below you see METARs of the last few days. Select a year to browse through older METARs, from the year 2007 onwards.

December 1, 2022

Time Code Weather Temp. Visibility Ceiling Wind METAR/SPECI
15:00
V
22 °C 10 km+ - 180° 180° 11 kt METAR SPJC 012000Z 18011KT 9999 FEW010 22/17 Q1011 NOSIG RMK PP000
14:00
V
22 °C 10 km+ - 180° 180° 11 kt METAR SPJC 011900Z 18011KT 150V210 9999 FEW012 22/16 Q1012 NOSIG RMK PP000
13:00
V
22 °C 10 km+ - 180° 180° 9 kt METAR SPJC 011800Z 18009KT 140V200 9999 FEW013 22/16 Q1013 NOSIG RMK PP000
12:00
V
23 °C 10 km+ - 250° 250° 6 kt METAR SPJC 011700Z 25006KT 200V300 CAVOK 23/16 Q1013 NOSIG RMK PP000
11:00
V
22 °C 10 km+ - 240° 240° 7 kt METAR SPJC 011600Z 24007KT 200V270 CAVOK 22/17 Q1013 NOSIG RMK PP000
10:00
V
21 °C 10 km+ - 180° 180° 6 kt METAR SPJC 011500Z 18006KT CAVOK 21/17 Q1013 NOSIG RMK PP000
09:00
V
21 °C 10 km+ - 170° 170° 4 kt METAR SPJC 011400Z 17004KT 130V210 CAVOK 21/17 Q1013 NOSIG RMK PP000
08:00
V
19 °C 10 km+ - 180° 180° 6 kt METAR SPJC 011300Z 18006KT 9999 SCT007 19/16 Q1013 NOSIG RMK PP000
07:00
V
19 °C 10 km+ - 190° 190° 5 kt METAR SPJC 011200Z 19005KT CAVOK 19/17 Q1012 TEMPO AT1300 BKN010 RMK TN18.0 PP000
06:00
V
18 °C 10 km+ - 170° 170° 5 kt METAR SPJC 011100Z 17005KT CAVOK 18/16 Q1011 NOSIG RMK PP000
05:00
V
18 °C 10 km+ - 170° 170° 8 kt METAR SPJC 011000Z 17008KT CAVOK 18/16 Q1010 NOSIG RMK PP000
04:00
V
19 °C 10 km+ - 170° 170° 7 kt METAR SPJC 010900Z 17007KT CAVOK 19/16 Q1010 NOSIG RMK PP000
03:00
V
19 °C 10 km+ - 160° 160° 9 kt METAR SPJC 010800Z 16009KT 9999 FEW007 19/16 Q1010 NOSIG RMK PP000
02:00
I
19 °C 10 km+ 700 ft 160° 160° 11 kt METAR SPJC 010700Z 16011KT 9999 BKN007 19/16 Q1010 BECMG AT0800 OVC010 RMK PP000
01:00
V
19 °C 10 km+ - 160° 160° 12 kt METAR SPJC 010600Z 16012KT 9999 FEW007 19/16 Q1011 NOSIG RMK PP000
00:00
V
20 °C 10 km+ - 150° 150° 12 kt METAR SPJC 010500Z 15012KT CAVOK 20/16 Q1012 NOSIG RMK PP000

November 30, 2022

Time Code Weather Temp. Visibility Ceiling Wind METAR/SPECI
23:00
V
20 °C 10 km+ - 160° 160° 11 kt METAR SPJC 010400Z 16011KT CAVOK 20/16 Q1013 NOSIG RMK PP000
22:00
V
20 °C 10 km+ - 160° 160° 12 kt METAR SPJC 010300Z 16012KT 9999 SCT120 20/16 Q1014 NOSIG RMK PP000
21:00
V
21 °C 10 km+ - 170° 170° 10 kt METAR SPJC 010200Z 17010KT CAVOK 21/15 Q1014 NOSIG RMK PP000
20:00
V
21 °C 10 km+ - 160° 160° 11 kt METAR SPJC 010100Z 16011KT CAVOK 21/15 Q1013 NOSIG RMK PP000
19:00
V
21 °C 10 km+ - 170° 170° 13 kt METAR SPJC 010000Z 17013KT CAVOK 21/15 Q1012 NOSIG RMK PP000
18:00
V
22 °C 10 km+ - 170° 170° 14 kt METAR SPJC 302300Z 17014KT CAVOK 22/15 Q1011 NOSIG RMK PP000
17:00
V
23 °C 10 km+ - 170° 170° 14 kt METAR SPJC 302200Z 17014KT CAVOK 23/15 Q1010 NOSIG RMK TX24.7 PP000
16:00
V
24 °C 10 km+ - 180° 180° 13 kt METAR SPJC 302100Z 18013KT CAVOK 24/15 Q1010 NOSIG RMK PP000
15:00
V
24 °C 10 km+ - 180° 180° 13 kt METAR SPJC 302000Z 18013KT CAVOK 24/15 Q1010 NOSIG RMK PP000
14:00
V
24 °C 10 km+ - 180° 180° 13 kt METAR SPJC 301900Z 18013KT CAVOK 24/16 Q1011 NOSIG RMK PP000
13:00
V
25 °C 10 km+ - 170° 170° 13 kt METAR SPJC 301800Z 17013KT CAVOK 25/16 Q1012 NOSIG RMK PP000
12:00
V
24 °C 10 km+ - 180° 180° 11 kt METAR SPJC 301700Z 18011KT CAVOK 24/17 Q1013 NOSIG RMK PP000
11:00
V
23 °C 10 km+ - 180° 180° 10 kt METAR SPJC 301600Z 18010KT 9999 SCT030 23/16 Q1013 BECMG SCT030 RMK PP000
10:00
V
22 °C 10 km+ 3,500 ft 180° 180° 9 kt METAR SPJC 301500Z 18009KT 9999 BKN035 22/17 Q1013 NOSIG RMK PP000
09:00
V
21 °C 10 km+ 3,000 ft 170° 170° 7 kt METAR SPJC 301400Z 17007KT 9999 OVC030 21/16 Q1014 NOSIG RMK PP000
08:00
V
21 °C 10 km+ 3,000 ft 180° 180° 5 kt METAR SPJC 301300Z 18005KT 9999 OVC030 21/16 Q1013 NOSIG RMK PP000
07:00
V
20 °C 10 km+ 3,100 ft 160° 160° 5 kt METAR SPJC 301200Z 16005KT 9999 OVC031 20/17 Q1013 NOSIG RMK TN19.3 PP000
06:00
V
20 °C 10 km+ 3,100 ft 180° 180° 5 kt METAR SPJC 301100Z 18005KT 9999 OVC031 20/17 Q1012 NOSIG RMK PP000
05:00
V
19 °C 10 km+ 3,200 ft 170° 170° 5 kt METAR SPJC 301000Z 17005KT 9999 OVC032 19/17 Q1012 NOSIG RMK PP000
04:00
V
19 °C 10 km+ 3,200 ft 170° 170° 8 kt METAR SPJC 300900Z 17008KT 9999 OVC032 19/17 Q1011 NOSIG RMK PP000
03:00
V
19 °C 10 km+ 3,300 ft 160° 160° 7 kt METAR SPJC 300800Z 16007KT 9999 OVC033 19/17 Q1011 NOSIG RMK PP000
02:00
V
20 °C 10 km+ 3,400 ft 170° 170° 9 kt METAR SPJC 300700Z 17009KT 9999 OVC034 20/17 Q1012 NOSIG RMK PP000
01:00
V
20 °C 10 km+ 3,200 ft 170° 170° 8 kt METAR SPJC 300600Z 17008KT 9999 OVC032 20/17 Q1013 NOSIG RMK PP000
00:00
V
20 °C 10 km+ 3,500 ft 170° 170° 9 kt METAR SPJC 300500Z 17009KT 9999 OVC035 20/16 Q1014 NOSIG RMK PP000

November 29, 2022

Time Code Weather Temp. Visibility Ceiling Wind METAR/SPECI
23:00
V
20 °C 10 km+ 3,500 ft 170° 170° 7 kt METAR SPJC 300400Z 17007KT 9999 OVC035 20/17 Q1014 NOSIG RMK PP000
22:00
V
20 °C 10 km+ 3,500 ft 180° 180° 6 kt METAR SPJC 300300Z 18006KT 9999 OVC035 20/17 Q1014 NOSIG RMK PP000
21:00
V
20 °C 10 km+ 3,500 ft 160° 160° 8 kt METAR SPJC 300200Z 16008KT 9999 OVC035 20/17 Q1014 NOSIG RMK PP000
20:00
V
20 °C 10 km+ 4,000 ft 180° 180° 8 kt METAR SPJC 300100Z 18008KT 9999 FEW012 OVC040 20/16 Q1014 NOSIG RMK PP000
19:00
V
20 °C 10 km+ 4,000 ft 180° 180° 7 kt METAR SPJC 300000Z 18007KT 9999 FEW012 OVC040 20/16 Q1013 NOSIG RMK PP000
18:00
V
20 °C 10 km+ 4,000 ft 190° 190° 8 kt METAR SPJC 292300Z 19008KT 9999 OVC040 20/16 Q1013 NOSIG RMK PP000
17:00
V
21 °C 10 km+ 4,000 ft 170° 170° 8 kt METAR SPJC 292200Z 17008KT 9999 OVC040 21/16 Q1012 NOSIG RMK TX23.6 PP000
16:00
V
22 °C 10 km+ 4,000 ft 180° 180° 7 kt METAR SPJC 292100Z 18007KT 150V210 9999 FEW021 OVC040 22/16 Q1012 NOSIG RMK BIRD HAZARD RWY 16 PP000
15:00
V
23 °C 10 km+ 4,000 ft 180° 180° 8 kt METAR SPJC 292000Z 18008KT 9999 FEW021 BKN040 23/16 Q1012 NOSIG RMK BIRD HAZARD RWY 16 PP000
14:00
V
23 °C 10 km+ 4,000 ft 220° 220° 6 kt METAR SPJC 291900Z 22006KT 170V260 9999 FEW027 BKN040 23/15 Q1012 NOSIG RMK BIRD HAZARD RWY 16 PP000
13:00
V
23 °C 10 km+ 4,000 ft 250° 250° 6 kt METAR SPJC 291800Z 25006KT 200V300 9999 BKN040 23/16 Q1013 NOSIG RMK BIRD HAZARD RWY 16 PP000
12:00
V
22 °C 10 km+ 4,000 ft 270° 270° 7 kt METAR SPJC 291700Z 27007KT 240V300 9999 BKN040 22/16 Q1014 NOSIG RMK PP000
11:00
V
22 °C 10 km+ 4,000 ft 240° 240° 4 kt METAR SPJC 291600Z 24004KT 200V290 9999 OVC040 22/15 Q1014 NOSIG RMK PP000
10:00
V
22 °C 10 km+ 4,000 ft 270° 270° 4 kt METAR SPJC 291500Z 27004KT 9999 OVC040 22/16 Q1015 NOSIG RMK PP000
09:00
V
22 °C 10 km+ 3,300 ft Var Var 2 kt METAR SPJC 291400Z VRB02KT 9999 OVC033 22/16 Q1015 NOSIG RMK PP000
08:00
V
20 °C 10 km+ 3,300 ft 170° 170° 3 kt METAR SPJC 291300Z 17003KT 9999 OVC033 20/17 Q1015 NOSIG RMK PP000
07:00
V
20 °C 10 km+ 3,300 ft 180° 180° 3 kt METAR SPJC 291200Z 18003KT 9999 OVC033 20/17 Q1015 NOSIG RMK TN18.9 PP000
06:00
V
19 °C 10 km+ 3,300 ft 160° 160° 5 kt METAR SPJC 291100Z 16005KT 9999 OVC033 19/17 Q1014 NOSIG RMK PP000
05:00
V
19 °C 10 km+ 3,300 ft 170° 170° 4 kt METAR SPJC 291000Z 17004KT 9999 SCT012 BKN033 19/17 Q1014 NOSIG RMK PP000

We and third parties follow your internet behavior on our website with cookies. If you continue, we assume you agree with our cookie policy.